sensor_id;sensor_type;location;lat;lon;timestamp;pressure;altitude;pressure_sealevel;temperature;humidity
60719;BME280;46567;51.660;5.824;2023-02-02T00:02:54;102010.0;;;9.0;86.0
60719;BME280;46567;51.660;5.824;2023-02-02T00:07:54;102010.0;;;9.0;86.0
60719;BME280;46567;51.660;5.824;2023-02-02T00:12:54;102020.0;;;9.0;86.0
60719;BME280;46567;51.660;5.824;2023-02-02T00:17:54;102010.0;;;9.0;86.0
60719;BME280;46567;51.660;5.824;2023-02-02T00:22:54;102010.0;;;9.0;86.0
60719;BME280;46567;51.660;5.824;2023-02-02T00:27:54;102020.0;;;9.1;86.0
60719;BME280;46567;51.660;5.824;2023-02-02T00:32:54;102010.0;;;9.1;86.0
60719;BME280;46567;51.660;5.824;2023-02-02T00:37:54;102020.0;;;9.1;86.0
60719;BME280;46567;51.660;5.824;2023-02-02T00:42:54;102020.0;;;9.1;86.0
60719;BME280;46567;51.660;5.824;2023-02-02T00:47:54;102020.0;;;9.1;86.0
60719;BME280;46567;51.660;5.824;2023-02-02T00:52:54;102030.0;;;9.1;86.0
60719;BME280;46567;51.660;5.824;2023-02-02T00:57:54;102030.0;;;9.1;86.5
60719;BME280;46567;51.660;5.824;2023-02-02T01:02:54;102030.0;;;9.1;86.5
60719;BME280;46567;51.660;5.824;2023-02-02T01:07:54;102020.0;;;9.1;86.5
60719;BME280;46567;51.660;5.824;2023-02-02T01:12:54;102020.0;;;9.1;87.0
60719;BME280;46567;51.660;5.824;2023-02-02T01:17:54;102020.0;;;9.1;87.0
60719;BME280;46567;51.660;5.824;2023-02-02T01:22:54;102020.0;;;9.0;87.0
60719;BME280;46567;51.660;5.824;2023-02-02T01:27:54;102020.0;;;9.0;87.0
60719;BME280;46567;51.660;5.824;2023-02-02T01:32:54;102020.0;;;9.1;87.0
60719;BME280;46567;51.660;5.824;2023-02-02T01:37:54;102030.0;;;9.1;87.0
60719;BME280;46567;51.660;5.824;2023-02-02T01:42:54;102020.0;;;9.1;87.0
60719;BME280;46567;51.660;5.824;2023-02-02T01:47:56;102020.0;;;9.1;87.0
60719;BME280;46567;51.660;5.824;2023-02-02T01:52:55;102020.0;;;9.1;86.5
60719;BME280;46567;51.660;5.824;2023-02-02T01:57:58;102020.0;;;9.1;86.5
60719;BME280;46567;51.660;5.824;2023-02-02T02:02:57;102030.0;;;9.1;86.5
60719;BME280;46567;51.660;5.824;2023-02-02T02:07:59;102020.0;;;9.1;86.5
60719;BME280;46567;51.660;5.824;2023-02-02T02:12:54;102020.0;;;9.2;86.5
60719;BME280;46567;51.660;5.824;2023-02-02T02:18:39;102020.0;;;9.1;86.5
60719;BME280;46567;51.660;5.824;2023-02-02T02:26:19;102010.0;;;9.1;86.5
60719;BME280;46567;51.660;5.824;2023-02-02T02:32:29;102030.0;;;9.1;86.5
60719;BME280;46567;51.660;5.824;2023-02-02T02:36:50;102020.0;;;9.1;86.5
60719;BME280;46567;51.660;5.824;2023-02-02T02:40:54;102020.0;;;9.1;86.5
60719;BME280;46567;51.660;5.824;2023-02-02T02:43:59;102020.0;;;9.1;86.5
60719;BME280;46567;51.660;5.824;2023-02-02T02:47:54;102030.0;;;9.1;86.5
60719;BME280;46567;51.660;5.824;2023-02-02T02:52:59;102020.0;;;9.1;86.5
60719;BME280;46567;51.660;5.824;2023-02-02T02:58:40;102030.0;;;9.1;86.5
60719;BME280;46567;51.660;5.824;2023-02-02T03:03:11;102040.0;;;9.1;86.5
60719;BME280;46567;51.660;5.824;2023-02-02T03:07:59;102020.0;;;9.1;86.5
60719;BME280;46567;51.660;5.824;2023-02-02T03:12:54;102030.0;;;9.1;86.5
60719;BME280;46567;51.660;5.824;2023-02-02T03:17:54;102020.0;;;9.1;86.5
60719;BME280;46567;51.660;5.824;2023-02-02T03:22:54;102020.0;;;9.1;86.5
60719;BME280;46567;51.660;5.824;2023-02-02T03:27:54;102010.0;;;9.0;86.5
60719;BME280;46567;51.660;5.824;2023-02-02T03:32:54;102020.0;;;9.0;86.5
60719;BME280;46567;51.660;5.824;2023-02-02T03:37:54;102010.0;;;9.0;86.5
60719;BME280;46567;51.660;5.824;2023-02-02T03:42:54;102020.0;;;9.0;86.5
60719;BME280;46567;51.660;5.824;2023-02-02T03:47:54;102020.0;;;8.9;86.5
60719;BME280;46567;51.660;5.824;2023-02-02T03:52:54;102030.0;;;8.9;86.5
60719;BME280;46567;51.660;5.824;2023-02-02T03:57:54;102060.0;;;9.0;87.0
60719;BME280;46567;51.660;5.824;2023-02-02T04:02:54;102060.0;;;9.0;87.0
60719;BME280;46567;51.660;5.824;2023-02-02T04:07:54;102060.0;;;9.0;86.5
60719;BME280;46567;51.660;5.824;2023-02-02T04:12:54;102060.0;;;9.1;86.5
60719;BME280;46567;51.660;5.824;2023-02-02T04:17:54;102050.0;;;9.1;86.5
60719;BME280;46567;51.660;5.824;2023-02-02T04:22:54;102060.0;;;9.1;86.5
60719;BME280;46567;51.660;5.824;2023-02-02T04:27:54;102050.0;;;9.1;86.5
60719;BME280;46567;51.660;5.824;2023-02-02T04:32:54;102060.0;;;9.1;86.5
60719;BME280;46567;51.660;5.824;2023-02-02T04:37:54;102060.0;;;9.2;86.5
60719;BME280;46567;51.660;5.824;2023-02-02T04:42:55;102050.0;;;9.2;86.5
60719;BME280;46567;51.660;5.824;2023-02-02T04:47:54;102050.0;;;9.2;86.5
60719;BME280;46567;51.660;5.824;2023-02-02T04:52:54;102040.0;;;9.2;86.5
60719;BME280;46567;51.660;5.824;2023-02-02T04:57:54;102050.0;;;9.2;86.5
60719;BME280;46567;51.660;5.824;2023-02-02T05:02:54;102060.0;;;9.2;86.5
60719;BME280;46567;51.660;5.824;2023-02-02T05:07:54;102050.0;;;9.2;86.5
60719;BME280;46567;51.660;5.824;2023-02-02T05:12:54;102050.0;;;9.2;86.5
60719;BME280;46567;51.660;5.824;2023-02-02T05:17:54;102060.0;;;9.2;86.5
60719;BME280;46567;51.660;5.824;2023-02-02T05:22:54;102050.0;;;9.2;86.5
60719;BME280;46567;51.660;5.824;2023-02-02T05:27:54;102050.0;;;9.2;86.5
60719;BME280;46567;51.660;5.824;2023-02-02T05:32:54;102070.0;;;9.2;86.5
60719;BME280;46567;51.660;5.824;2023-02-02T05:37:54;102070.0;;;9.2;86.5
60719;BME280;46567;51.660;5.824;2023-02-02T05:42:54;102090.0;;;9.3;86.5
60719;BME280;46567;51.660;5.824;2023-02-02T05:47:54;102070.0;;;9.3;86.5
60719;BME280;46567;51.660;5.824;2023-02-02T05:52:54;102060.0;;;9.3;86.5
60719;BME280;46567;51.660;5.824;2023-02-02T05:57:54;102070.0;;;9.3;86.5
60719;BME280;46567;51.660;5.824;2023-02-02T06:02:54;102070.0;;;9.3;86.5
60719;BME280;46567;51.660;5.824;2023-02-02T06:07:54;102070.0;;;9.3;86.5
60719;BME280;46567;51.660;5.824;2023-02-02T06:12:54;102070.0;;;9.3;86.5
60719;BME280;46567;51.660;5.824;2023-02-02T06:17:54;102070.0;;;9.3;86.5
60719;BME280;46567;51.660;5.824;2023-02-02T06:22:54;102080.0;;;9.3;86.5
60719;BME280;46567;51.660;5.824;2023-02-02T06:27:54;102080.0;;;9.3;86.5
60719;BME280;46567;51.660;5.824;2023-02-02T06:32:54;102080.0;;;9.3;86.5
60719;BME280;46567;51.660;5.824;2023-02-02T06:37:54;102080.0;;;9.3;86.5
60719;BME280;46567;51.660;5.824;2023-02-02T06:42:54;102090.0;;;9.3;86.5
60719;BME280;46567;51.660;5.824;2023-02-02T06:47:57;102090.0;;;9.3;86.5
60719;BME280;46567;51.660;5.824;2023-02-02T06:52:54;102100.0;;;9.3;86.5
60719;BME280;46567;51.660;5.824;2023-02-02T06:57:54;102110.0;;;9.3;86.5
60719;BME280;46567;51.660;5.824;2023-02-02T07:02:54;102110.0;;;9.3;86.5
60719;BME280;46567;51.660;5.824;2023-02-02T07:07:54;102120.0;;;9.3;86.5
60719;BME280;46567;51.660;5.824;2023-02-02T07:12:54;102120.0;;;9.3;86.5
60719;BME280;46567;51.660;5.824;2023-02-02T07:17:54;102120.0;;;9.3;87.0
60719;BME280;46567;51.660;5.824;2023-02-02T07:22:54;102120.0;;;9.3;87.0
60719;BME280;46567;51.660;5.824;2023-02-02T07:27:54;102130.0;;;9.2;87.0
60719;BME280;46567;51.660;5.824;2023-02-02T07:32:54;102120.0;;;9.2;87.5
60719;BME280;46567;51.660;5.824;2023-02-02T07:37:54;102120.0;;;9.1;87.5
60719;BME280;46567;51.660;5.824;2023-02-02T07:42:54;102120.0;;;9.1;87.5
60719;BME280;46567;51.660;5.824;2023-02-02T07:47:54;102130.0;;;9.1;88.0
60719;BME280;46567;51.660;5.824;2023-02-02T07:52:54;102150.0;;;9.1;88.0
60719;BME280;46567;51.660;5.824;2023-02-02T07:57:54;102150.0;;;9.1;88.0
60719;BME280;46567;51.660;5.824;2023-02-02T08:02:54;102160.0;;;9.1;88.0
60719;BME280;46567;51.660;5.824;2023-02-02T08:07:55;102150.0;;;9.1;88.0
60719;BME280;46567;51.660;5.824;2023-02-02T08:12:54;102160.0;;;9.1;88.5
60719;BME280;46567;51.660;5.824;2023-02-02T08:17:54;102160.0;;;9.1;88.5
60719;BME280;46567;51.660;5.824;2023-02-02T08:22:55;102170.0;;;9.1;88.5
60719;BME280;46567;51.660;5.824;2023-02-02T08:27:55;102160.0;;;9.2;88.5
60719;BME280;46567;51.660;5.824;2023-02-02T08:32:54;102180.0;;;9.2;88.5
60719;BME280;46567;51.660;5.824;2023-02-02T08:37:54;102180.0;;;9.3;88.5
60719;BME280;46567;51.660;5.824;2023-02-02T08:42:54;102190.0;;;9.3;88.5
60719;BME280;46567;51.660;5.824;2023-02-02T08:47:54;102210.0;;;9.4;88.0
60719;BME280;46567;51.660;5.824;2023-02-02T08:52:54;102210.0;;;9.4;88.0
60719;BME280;46567;51.660;5.824;2023-02-02T08:57:54;102220.0;;;9.4;88.0
60719;BME280;46567;51.660;5.824;2023-02-02T09:02:54;102230.0;;;9.4;88.0
60719;BME280;46567;51.660;5.824;2023-02-02T09:07:54;102230.0;;;9.4;87.5
60719;BME280;46567;51.660;5.824;2023-02-02T09:12:54;102250.0;;;9.4;87.5
60719;BME280;46567;51.660;5.824;2023-02-02T09:17:54;102260.0;;;9.5;87.5
60719;BME280;46567;51.660;5.824;2023-02-02T09:22:55;102260.0;;;9.5;87.5
60719;BME280;46567;51.660;5.824;2023-02-02T09:27:54;102260.0;;;9.5;87.5
60719;BME280;46567;51.660;5.824;2023-02-02T09:32:54;102280.0;;;9.6;87.5
60719;BME280;46567;51.660;5.824;2023-02-02T09:37:54;102280.0;;;9.6;87.5
60719;BME280;46567;51.660;5.824;2023-02-02T09:43:37;102290.0;;;9.7;87.5
60719;BME280;46567;51.660;5.824;2023-02-02T09:48:09;102300.0;;;9.8;87.0
60719;BME280;46567;51.660;5.824;2023-02-02T09:53:03;102290.0;;;9.9;87.0
60719;BME280;46567;51.660;5.824;2023-02-02T09:58:09;102290.0;;;10.0;86.5
60719;BME280;46567;51.660;5.824;2023-02-02T10:03:00;102300.0;;;10.0;86.5
60719;BME280;46567;51.660;5.824;2023-02-02T10:07:57;102300.0;;;10.1;86.5
60719;BME280;46567;51.660;5.824;2023-02-02T10:12:58;102310.0;;;10.1;86.5
60719;BME280;46567;51.660;5.824;2023-02-02T10:18:15;102310.0;;;10.1;86.5
60719;BME280;46567;51.660;5.824;2023-02-02T10:22:58;102330.0;;;10.1;86.0
60719;BME280;46567;51.660;5.824;2023-02-02T10:28:07;102320.0;;;10.2;86.0
60719;BME280;46567;51.660;5.824;2023-02-02T10:33:13;102320.0;;;10.1;86.0
60719;BME280;46567;51.660;5.824;2023-02-02T10:38:12;102320.0;;;10.1;86.0
60719;BME280;46567;51.660;5.824;2023-02-02T10:43:56;102330.0;;;10.1;86.5
60719;BME280;46567;51.660;5.824;2023-02-02T10:47:54;102320.0;;;10.1;86.5
60719;BME280;46567;51.660;5.824;2023-02-02T10:52:59;102330.0;;;10.2;86.5
60719;BME280;46567;51.660;5.824;2023-02-02T10:58:01;102330.0;;;10.2;86.5
60719;BME280;46567;51.660;5.824;2023-02-02T11:02:54;102340.0;;;10.3;86.0
60719;BME280;46567;51.660;5.824;2023-02-02T11:07:54;102340.0;;;10.3;86.0
60719;BME280;46567;51.660;5.824;2023-02-02T11:12:55;102340.0;;;10.3;86.0
60719;BME280;46567;51.660;5.824;2023-02-02T11:17:54;102340.0;;;10.3;86.0
60719;BME280;46567;51.660;5.824;2023-02-02T11:23:05;102330.0;;;10.3;85.5
60719;BME280;46567;51.660;5.824;2023-02-02T11:27:54;102340.0;;;10.3;85.5
60719;BME280;46567;51.660;5.824;2023-02-02T11:32:54;102340.0;;;10.3;86.0
60719;BME280;46567;51.660;5.824;2023-02-02T11:37:56;102350.0;;;10.3;85.5
60719;BME280;46567;51.660;5.824;2023-02-02T11:42:56;102330.0;;;10.2;85.5
60719;BME280;46567;51.660;5.824;2023-02-02T11:47:59;102320.0;;;10.3;85.5
60719;BME280;46567;51.660;5.824;2023-02-02T11:52:54;102320.0;;;10.3;85.5
60719;BME280;46567;51.660;5.824;2023-02-02T11:58:08;102330.0;;;10.3;85.5
60719;BME280;46567;51.660;5.824;2023-02-02T12:02:54;102320.0;;;10.3;85.5
60719;BME280;46567;51.660;5.824;2023-02-02T12:07:54;102320.0;;;10.3;85.0
60719;BME280;46567;51.660;5.824;2023-02-02T12:13:06;102330.0;;;10.3;85.0
60719;BME280;46567;51.660;5.824;2023-02-02T12:18:20;102330.0;;;10.3;85.0
60719;BME280;46567;51.660;5.824;2023-02-02T12:23:57;102330.0;;;10.3;85.0
60719;BME280;46567;51.660;5.824;2023-02-02T12:28:58;102330.0;;;10.3;85.0
60719;BME280;46567;51.660;5.824;2023-02-02T12:34:05;102340.0;;;10.3;85.0
60719;BME280;46567;51.660;5.824;2023-02-02T12:40:16;102330.0;;;10.3;85.0
60719;BME280;46567;51.660;5.824;2023-02-02T12:45:46;102320.0;;;10.3;85.0
60719;BME280;46567;51.660;5.824;2023-02-02T12:51:28;102320.0;;;10.3;85.0
60719;BME280;46567;51.660;5.824;2023-02-02T12:57:16;102310.0;;;10.3;85.0
60719;BME280;46567;51.660;5.824;2023-02-02T13:03:05;102310.0;;;10.3;85.0
60719;BME280;46567;51.660;5.824;2023-02-02T13:08:01;102300.0;;;10.3;85.0
60719;BME280;46567;51.660;5.824;2023-02-02T13:11:54;102310.0;;;10.4;85.0
60719;BME280;46567;51.660;5.824;2023-02-02T13:13:41;102310.0;;;10.3;85.0
60719;BME280;46567;51.660;5.824;2023-02-02T13:17:59;102310.0;;;10.3;85.0
60719;BME280;46567;51.660;5.824;2023-02-02T13:22:57;102310.0;;;10.3;85.5
60719;BME280;46567;51.660;5.824;2023-02-02T13:27:57;102310.0;;;10.3;86.0
60719;BME280;46567;51.660;5.824;2023-02-02T13:32:57;102310.0;;;10.2;86.0
60719;BME280;46567;51.660;5.824;2023-02-02T13:38:05;102310.0;;;10.1;86.5
60719;BME280;46567;51.660;5.824;2023-02-02T13:43:18;102300.0;;;10.1;87.0
60719;BME280;46567;51.660;5.824;2023-02-02T13:48:03;102310.0;;;10.0;87.5
60719;BME280;46567;51.660;5.824;2023-02-02T13:54:24;102300.0;;;10.0;87.5
60719;BME280;46567;51.660;5.824;2023-02-02T14:00:35;102310.0;;;10.0;88.0
60719;BME280;46567;51.660;5.824;2023-02-02T14:02:56;102310.0;;;10.0;88.0
60719;BME280;46567;51.660;5.824;2023-02-02T14:07:57;102320.0;;;10.0;88.0
60719;BME280;46567;51.660;5.824;2023-02-02T14:12:55;102330.0;;;10.0;88.0
60719;BME280;46567;51.660;5.824;2023-02-02T14:17:54;102330.0;;;10.0;88.0
60719;BME280;46567;51.660;5.824;2023-02-02T14:22:54;102330.0;;;10.0;88.5
60719;BME280;46567;51.660;5.824;2023-02-02T14:28:08;102340.0;;;9.9;88.5
60719;BME280;46567;51.660;5.824;2023-02-02T14:33:17;102340.0;;;9.9;89.0
60719;BME280;46567;51.660;5.824;2023-02-02T14:37:55;102330.0;;;9.9;89.0
60719;BME280;46567;51.660;5.824;2023-02-02T14:43:34;102340.0;;;9.9;89.0
60719;BME280;46567;51.660;5.824;2023-02-02T14:47:58;102350.0;;;9.9;89.5
60719;BME280;46567;51.660;5.824;2023-02-02T14:53:03;102360.0;;;9.9;89.5
60719;BME280;46567;51.660;5.824;2023-02-02T14:57:58;102360.0;;;9.8;90.0
60719;BME280;46567;51.660;5.824;2023-02-02T15:02:54;102360.0;;;9.7;90.0
60719;BME280;46567;51.660;5.824;2023-02-02T15:08:27;102370.0;;;9.7;90.0
60719;BME280;46567;51.660;5.824;2023-02-02T15:13:02;102360.0;;;9.6;90.5
60719;BME280;46567;51.660;5.824;2023-02-02T15:17:59;102370.0;;;9.6;91.0
60719;BME280;46567;51.660;5.824;2023-02-02T15:22:59;102370.0;;;9.6;91.0
60719;BME280;46567;51.660;5.824;2023-02-02T15:28:09;102380.0;;;9.5;91.5
60719;BME280;46567;51.660;5.824;2023-02-02T15:32:55;102370.0;;;9.5;91.5
60719;BME280;46567;51.660;5.824;2023-02-02T15:37:56;102370.0;;;9.4;92.0
60719;BME280;46567;51.660;5.824;2023-02-02T15:42:59;102370.0;;;9.4;92.0
60719;BME280;46567;51.660;5.824;2023-02-02T15:47:55;102380.0;;;9.4;92.5
60719;BME280;46567;51.660;5.824;2023-02-02T15:52:54;102380.0;;;9.4;92.5
60719;BME280;46567;51.660;5.824;2023-02-02T15:57:55;102380.0;;;9.3;92.5
60719;BME280;46567;51.660;5.824;2023-02-02T16:02:58;102380.0;;;9.3;93.0
60719;BME280;46567;51.660;5.824;2023-02-02T16:07:57;102390.0;;;9.3;93.0
60719;BME280;46567;51.660;5.824;2023-02-02T16:12:54;102400.0;;;9.3;93.0
60719;BME280;46567;51.660;5.824;2023-02-02T16:17:58;102410.0;;;9.3;93.5
60719;BME280;46567;51.660;5.824;2023-02-02T16:22:56;102430.0;;;9.3;93.5
60719;BME280;46567;51.660;5.824;2023-02-02T16:27:54;102420.0;;;9.3;93.5
60719;BME280;46567;51.660;5.824;2023-02-02T16:32:55;102420.0;;;9.3;93.5
60719;BME280;46567;51.660;5.824;2023-02-02T16:38:10;102430.0;;;9.3;93.5
60719;BME280;46567;51.660;5.824;2023-02-02T16:43:03;102430.0;;;9.3;94.0
60719;BME280;46567;51.660;5.824;2023-02-02T16:48:16;102440.0;;;9.2;94.0
60719;BME280;46567;51.660;5.824;2023-02-02T16:52:56;102450.0;;;9.2;94.5
60719;BME280;46567;51.660;5.824;2023-02-02T16:57:55;102450.0;;;9.2;94.5
60719;BME280;46567;51.660;5.824;2023-02-02T17:02:57;102450.0;;;9.2;94.5
60719;BME280;46567;51.660;5.824;2023-02-02T17:07:56;102460.0;;;9.2;95.0
60719;BME280;46567;51.660;5.824;2023-02-02T17:12:54;102460.0;;;9.2;95.0
60719;BME280;46567;51.660;5.824;2023-02-02T17:17:54;102470.0;;;9.2;95.0
60719;BME280;46567;51.660;5.824;2023-02-02T17:22:57;102460.0;;;9.2;95.0
60719;BME280;46567;51.660;5.824;2023-02-02T17:27:55;102460.0;;;9.2;95.0
60719;BME280;46567;51.660;5.824;2023-02-02T17:32:55;102470.0;;;9.2;95.0
60719;BME280;46567;51.660;5.824;2023-02-02T17:37:54;102470.0;;;9.1;95.0
60719;BME280;46567;51.660;5.824;2023-02-02T17:42:54;102470.0;;;9.1;95.5
60719;BME280;46567;51.660;5.824;2023-02-02T17:47:54;102470.0;;;9.2;95.5
60719;BME280;46567;51.660;5.824;2023-02-02T17:52:54;102480.0;;;9.2;95.0
60719;BME280;46567;51.660;5.824;2023-02-02T17:57:54;102470.0;;;9.2;95.0
60719;BME280;46567;51.660;5.824;2023-02-02T18:02:57;102470.0;;;9.2;95.0
60719;BME280;46567;51.660;5.824;2023-02-02T18:07:54;102470.0;;;9.2;95.0
60719;BME280;46567;51.660;5.824;2023-02-02T18:12:54;102460.0;;;9.3;95.0
60719;BME280;46567;51.660;5.824;2023-02-02T18:17:55;102460.0;;;9.3;95.0
60719;BME280;46567;51.660;5.824;2023-02-02T18:22:54;102460.0;;;9.3;95.0
60719;BME280;46567;51.660;5.824;2023-02-02T18:27:54;102460.0;;;9.3;95.0
60719;BME280;46567;51.660;5.824;2023-02-02T18:32:54;102450.0;;;9.3;95.0
60719;BME280;46567;51.660;5.824;2023-02-02T18:37:54;102450.0;;;9.3;95.0
60719;BME280;46567;51.660;5.824;2023-02-02T18:42:54;102450.0;;;9.3;95.0
60719;BME280;46567;51.660;5.824;2023-02-02T18:47:54;102450.0;;;9.3;95.0
60719;BME280;46567;51.660;5.824;2023-02-02T18:52:54;102450.0;;;9.3;95.0
60719;BME280;46567;51.660;5.824;2023-02-02T18:57:54;102440.0;;;9.4;95.0
60719;BME280;46567;51.660;5.824;2023-02-02T19:02:54;102440.0;;;9.4;95.0
60719;BME280;46567;51.660;5.824;2023-02-02T19:07:54;102450.0;;;9.4;95.0
60719;BME280;46567;51.660;5.824;2023-02-02T19:12:57;102450.0;;;9.4;95.0
60719;BME280;46567;51.660;5.824;2023-02-02T19:17:54;102450.0;;;9.4;95.0
60719;BME280;46567;51.660;5.824;2023-02-02T19:22:59;102460.0;;;9.5;95.0
60719;BME280;46567;51.660;5.824;2023-02-02T19:27:54;102460.0;;;9.5;95.0
60719;BME280;46567;51.660;5.824;2023-02-02T19:32:54;102450.0;;;9.5;95.0
60719;BME280;46567;51.660;5.824;2023-02-02T19:37:57;102440.0;;;9.6;95.0
60719;BME280;46567;51.660;5.824;2023-02-02T19:43:13;102440.0;;;9.6;94.5
60719;BME280;46567;51.660;5.824;2023-02-02T19:47:55;102440.0;;;9.6;95.0
60719;BME280;46567;51.660;5.824;2023-02-02T19:52:55;102440.0;;;9.6;94.5
60719;BME280;46567;51.660;5.824;2023-02-02T19:57:58;102440.0;;;9.6;94.5
60719;BME280;46567;51.660;5.824;2023-02-02T20:02:58;102440.0;;;9.6;94.5
60719;BME280;46567;51.660;5.824;2023-02-02T20:07:59;102440.0;;;9.6;94.5
60719;BME280;46567;51.660;5.824;2023-02-02T20:12:54;102440.0;;;9.5;94.5
60719;BME280;46567;51.660;5.824;2023-02-02T20:17:56;102440.0;;;9.5;94.5
60719;BME280;46567;51.660;5.824;2023-02-02T20:22:56;102440.0;;;9.5;94.5
60719;BME280;46567;51.660;5.824;2023-02-02T20:27:54;102450.0;;;9.5;94.5
60719;BME280;46567;51.660;5.824;2023-02-02T20:32:56;102450.0;;;9.5;94.5
60719;BME280;46567;51.660;5.824;2023-02-02T20:37:54;102450.0;;;9.5;94.5
60719;BME280;46567;51.660;5.824;2023-02-02T20:42:54;102460.0;;;9.5;94.5
60719;BME280;46567;51.660;5.824;2023-02-02T20:47:54;102460.0;;;9.5;94.5
60719;BME280;46567;51.660;5.824;2023-02-02T20:52:54;102460.0;;;9.6;94.5
60719;BME280;46567;51.660;5.824;2023-02-02T20:57:54;102470.0;;;9.6;94.5
60719;BME280;46567;51.660;5.824;2023-02-02T21:02:55;102480.0;;;9.7;94.5
60719;BME280;46567;51.660;5.824;2023-02-02T21:07:54;102470.0;;;9.7;94.5
60719;BME280;46567;51.660;5.824;2023-02-02T21:12:54;102470.0;;;9.8;94.0
60719;BME280;46567;51.660;5.824;2023-02-02T21:17:54;102460.0;;;9.8;94.0
60719;BME280;46567;51.660;5.824;2023-02-02T21:22:54;102450.0;;;9.8;94.0
60719;BME280;46567;51.660;5.824;2023-02-02T21:27:54;102470.0;;;9.8;94.0
60719;BME280;46567;51.660;5.824;2023-02-02T21:32:54;102470.0;;;9.8;94.0
60719;BME280;46567;51.660;5.824;2023-02-02T21:37:56;102460.0;;;9.8;94.0
60719;BME280;46567;51.660;5.824;2023-02-02T21:42:58;102470.0;;;9.8;94.0
60719;BME280;46567;51.660;5.824;2023-02-02T21:47:58;102460.0;;;9.8;94.0
60719;BME280;46567;51.660;5.824;2023-02-02T21:53:06;102460.0;;;9.8;94.0
60719;BME280;46567;51.660;5.824;2023-02-02T21:57:55;102460.0;;;9.8;94.0
60719;BME280;46567;51.660;5.824;2023-02-02T22:02:55;102470.0;;;9.8;94.0
60719;BME280;46567;51.660;5.824;2023-02-02T22:07:56;102470.0;;;9.9;94.0
60719;BME280;46567;51.660;5.824;2023-02-02T22:12:55;102470.0;;;9.9;93.5
60719;BME280;46567;51.660;5.824;2023-02-02T22:17:54;102460.0;;;9.9;93.5
60719;BME280;46567;51.660;5.824;2023-02-02T22:22:54;102470.0;;;9.9;93.5
60719;BME280;46567;51.660;5.824;2023-02-02T22:27:56;102460.0;;;9.9;93.5
60719;BME280;46567;51.660;5.824;2023-02-02T22:32:54;102450.0;;;9.9;93.5
60719;BME280;46567;51.660;5.824;2023-02-02T22:37:54;102450.0;;;9.9;93.5
60719;BME280;46567;51.660;5.824;2023-02-02T22:42:56;102460.0;;;9.9;93.0
60719;BME280;46567;51.660;5.824;2023-02-02T22:47:54;102460.0;;;10.0;93.0
60719;BME280;46567;51.660;5.824;2023-02-02T22:52:55;102460.0;;;10.0;93.0
60719;BME280;46567;51.660;5.824;2023-02-02T22:57:54;102460.0;;;10.0;93.0
60719;BME280;46567;51.660;5.824;2023-02-02T23:02:55;102460.0;;;10.0;93.0
60719;BME280;46567;51.660;5.824;2023-02-02T23:07:55;102470.0;;;10.0;93.0
60719;BME280;46567;51.660;5.824;2023-02-02T23:12:55;102460.0;;;10.0;93.0
60719;BME280;46567;51.660;5.824;2023-02-02T23:17:55;102440.0;;;10.0;93.0
60719;BME280;46567;51.660;5.824;2023-02-02T23:22:55;102430.0;;;10.0;93.0
60719;BME280;46567;51.660;5.824;2023-02-02T23:27:54;102420.0;;;10.0;93.0
60719;BME280;46567;51.660;5.824;2023-02-02T23:32:54;102390.0;;;9.9;92.5
60719;BME280;46567;51.660;5.824;2023-02-02T23:37:54;102380.0;;;9.9;92.5
60719;BME280;46567;51.660;5.824;2023-02-02T23:42:54;102390.0;;;9.9;92.5
60719;BME280;46567;51.660;5.824;2023-02-02T23:47:54;102390.0;;;9.9;93.0
60719;BME280;46567;51.660;5.824;2023-02-02T23:52:54;102400.0;;;9.9;93.0
60719;BME280;46567;51.660;5.824;2023-02-02T23:57:54;102390.0;;;9.9;93.0
